createdAt,value
2022-10-09T00:01:26.456Z,89.76
2022-10-09T00:06:34.961Z,89.89
2022-10-09T00:11:37.673Z,89.79
2022-10-09T00:16:40.391Z,89.82
2022-10-09T00:21:43.136Z,89.88
2022-10-09T00:26:48.705Z,89.65
2022-10-09T00:31:51.419Z,89.95
2022-10-09T00:36:54.112Z,90.04
2022-10-09T00:41:56.905Z,90.12
2022-10-09T00:46:59.693Z,90.59
2022-10-09T00:52:07.306Z,91.06
2022-10-09T00:57:10.912Z,91.09
2022-10-09T01:02:13.762Z,91.34
2022-10-09T01:07:22.767Z,91.11
2022-10-09T01:12:31.716Z,91.19
2022-10-09T01:17:49.503Z,90.98
2022-10-09T01:23:31.105Z,91.08
2022-10-09T01:28:36.238Z,90.85
2022-10-09T01:33:40.297Z,91.04
2022-10-09T01:38:44.555Z,90.89
2022-10-09T01:43:47.262Z,90.93
2022-10-09T01:49:24.035Z,90.93
2022-10-09T01:54:57.211Z,91.17
2022-10-09T02:00:04.468Z,91.33
2022-10-09T02:05:10.235Z,91.87
2022-10-09T02:10:15.914Z,91.80
2022-10-09T02:15:20.442Z,92.08
2022-10-09T02:20:32.707Z,92.49
2022-10-09T02:25:36.087Z,92.70
2022-10-09T02:30:50.901Z,92.38
2022-10-09T02:35:53.906Z,92.45
2022-10-09T02:40:59.202Z,92.56
2022-10-09T02:46:01.986Z,92.62
2022-10-09T02:51:05.126Z,92.46
2022-10-09T02:56:07.877Z,92.55
2022-10-09T03:01:10.613Z,92.45
2022-10-09T03:06:16.617Z,92.78
2022-10-09T03:11:22.084Z,92.59
2022-10-09T03:16:26.396Z,92.63
2022-10-09T03:21:29.442Z,92.66
2022-10-09T03:26:32.499Z,92.98
2022-10-09T03:31:52.787Z,92.76
2022-10-09T03:36:56.238Z,93.18
2022-10-09T03:41:58.937Z,93.46
2022-10-09T03:47:01.726Z,93.61
2022-10-09T03:52:04.629Z,93.81
2022-10-09T03:57:07.321Z,94.04
2022-10-09T04:02:10.017Z,94.10
2022-10-09T04:07:12.770Z,94.09
2022-10-09T04:12:15.726Z,94.37
2022-10-09T04:17:18.413Z,94.43
2022-10-09T04:22:21.083Z,94.62
2022-10-09T04:27:23.779Z,94.47
2022-10-09T04:32:26.817Z,94.67
2022-10-09T04:37:29.486Z,94.96
2022-10-09T04:42:32.219Z,95.09
2022-10-09T04:47:35.479Z,95.06
2022-10-09T04:52:38.178Z,95.24
2022-10-09T04:57:40.919Z,95.51
2022-10-09T05:02:44.865Z,95.93
2022-10-09T05:07:47.638Z,96.43
2022-10-09T05:12:51.064Z,96.93
2022-10-09T05:17:54.259Z,97.26
2022-10-09T05:22:57.216Z,96.81
2022-10-09T05:28:00.852Z,96.57
2022-10-09T05:33:03.632Z,96.18
2022-10-09T05:38:06.361Z,95.51
2022-10-09T05:43:09.055Z,94.59
2022-10-09T05:48:11.985Z,94.49
2022-10-09T05:53:14.780Z,94.24
2022-10-09T05:58:17.481Z,93.96
2022-10-09T06:03:20.122Z,93.50
2022-10-09T06:08:22.798Z,93.48
2022-10-09T06:13:27.494Z,92.79
2022-10-09T06:18:30.206Z,92.49
2022-10-09T06:23:35.142Z,91.81
2022-10-09T06:28:37.976Z,91.61
2022-10-09T06:33:42.555Z,91.10
2022-10-09T06:38:45.366Z,90.62
2022-10-09T06:43:51.973Z,90.05
2022-10-09T06:48:55.087Z,89.73
2022-10-09T06:53:59.933Z,88.36
2022-10-09T06:59:05.076Z,88.66
2022-10-09T07:04:12.776Z,87.41
2022-10-09T07:09:16.489Z,87.52
2022-10-09T07:14:19.269Z,87.50
2022-10-09T07:19:22.052Z,87.15
2022-10-09T07:24:25.556Z,86.70
2022-10-09T07:29:28.261Z,85.80
2022-10-09T07:34:31.037Z,83.84
2022-10-09T07:39:35.581Z,83.25
2022-10-09T07:44:38.294Z,81.85
2022-10-09T07:49:41.006Z,81.20
2022-10-09T07:54:43.732Z,80.72
2022-10-09T07:59:46.556Z,80.50
2022-10-09T08:04:49.302Z,79.83
2022-10-09T08:09:52.440Z,79.51
2022-10-09T08:14:55.397Z,77.11
2022-10-09T08:19:58.671Z,74.62
2022-10-09T08:25:01.400Z,73.09
2022-10-09T08:30:04.581Z,73.66
2022-10-09T08:35:07.666Z,73.14
2022-10-09T08:40:18.938Z,72.20
2022-10-09T08:45:21.730Z,72.10
2022-10-09T08:50:35.914Z,71.86
2022-10-09T08:55:47.911Z,71.87
2022-10-09T09:00:59.994Z,72.85
2022-10-09T09:06:22.308Z,72.18
2022-10-09T09:11:46.910Z,72.22
2022-10-09T09:17:14.233Z,70.24
2022-10-09T09:22:17.260Z,70.56
2022-10-09T09:27:30.197Z,69.25
2022-10-09T09:32:33.847Z,67.63
2022-10-09T09:37:38.503Z,66.30
2022-10-09T09:42:43.103Z,66.92
2022-10-09T09:47:55.589Z,66.99
2022-10-09T09:53:02.864Z,66.24
2022-10-09T09:58:08.224Z,66.54
2022-10-09T10:03:17.949Z,66.58
2022-10-09T10:08:34.680Z,64.99
2022-10-09T10:13:46.029Z,65.37
2022-10-09T10:18:49.097Z,66.44
2022-10-09T10:24:03.867Z,67.79
2022-10-09T10:29:06.566Z,67.24
2022-10-09T10:34:18.746Z,67.45
2022-10-09T10:39:36.110Z,67.82
2022-10-09T10:44:52.457Z,68.35
2022-10-09T10:49:56.034Z,68.91
2022-10-09T10:55:34.491Z,68.57
2022-10-09T11:00:41.225Z,68.21
2022-10-09T11:05:52.602Z,67.58
2022-10-09T11:11:20.261Z,66.34
2022-10-09T11:16:35.568Z,65.33
2022-10-09T11:21:57.599Z,66.01
2022-10-09T11:27:26.339Z,66.60
2022-10-09T11:33:07.097Z,67.26
2022-10-09T11:38:31.913Z,67.79
2022-10-09T11:43:43.641Z,68.31
2022-10-09T11:49:09.277Z,67.97
2022-10-09T11:54:16.497Z,68.82
2022-10-09T11:59:42.153Z,68.75
2022-10-09T12:04:54.968Z,69.25
2022-10-09T12:10:21.185Z,69.35
2022-10-09T12:15:46.517Z,68.95
2022-10-09T12:20:50.811Z,69.08
2022-10-09T12:25:54.832Z,68.55
2022-10-09T12:31:05.038Z,68.18
2022-10-09T12:36:26.882Z,66.97
2022-10-09T12:41:34.792Z,65.54
2022-10-09T12:46:39.428Z,65.73
2022-10-09T12:51:53.845Z,65.04
2022-10-09T12:57:04.342Z,65.55
2022-10-09T13:02:18.810Z,64.65
2022-10-09T13:07:25.178Z,64.64
2022-10-09T13:12:29.820Z,64.49
2022-10-09T13:17:42.112Z,64.44
2022-10-09T13:23:00.301Z,64.40
2022-10-09T13:28:04.848Z,64.98
2022-10-09T13:33:14.572Z,64.05
2022-10-09T13:38:20.423Z,63.49
2022-10-09T13:43:26.782Z,63.33
2022-10-09T13:48:31.421Z,63.27
2022-10-09T13:53:35.477Z,63.70
2022-10-09T13:58:38.381Z,63.76
2022-10-09T14:03:41.343Z,64.31
2022-10-09T14:08:46.338Z,63.95
2022-10-09T14:13:49.136Z,64.68
2022-10-09T14:19:02.382Z,65.04
2022-10-09T14:24:08.334Z,64.69
2022-10-09T14:29:11.290Z,64.66
2022-10-09T14:34:15.401Z,65.15
2022-10-09T14:39:18.251Z,65.07
2022-10-09T14:44:21.359Z,65.47
2022-10-09T14:49:24.258Z,65.31
2022-10-09T14:54:30.508Z,65.47
2022-10-09T14:59:34.460Z,66.04
2022-10-09T15:04:37.203Z,66.56
2022-10-09T15:09:39.918Z,66.61
2022-10-09T15:14:42.692Z,66.89
2022-10-09T15:19:45.375Z,67.26
2022-10-09T15:24:48.283Z,67.80
2022-10-09T15:29:51.036Z,68.27
2022-10-09T15:34:53.720Z,68.60
2022-10-09T15:39:56.433Z,69.30
2022-10-09T15:44:59.128Z,69.57
2022-10-09T15:50:01.998Z,69.74
2022-10-09T15:55:05.699Z,69.97
2022-10-09T16:00:09.969Z,70.13
2022-10-09T16:05:12.659Z,70.35
2022-10-09T16:10:15.369Z,70.69
2022-10-09T16:15:18.285Z,70.94
2022-10-09T16:20:21.003Z,71.62
2022-10-09T16:25:23.713Z,71.95
2022-10-09T16:30:27.660Z,72.36
2022-10-09T16:35:30.437Z,72.96
2022-10-09T16:40:57.483Z,72.76
2022-10-09T16:45:56.551Z,73.00
2022-10-09T16:50:59.352Z,73.09
2022-10-09T16:56:11.518Z,73.35
2022-10-09T17:01:15.672Z,73.52
2022-10-09T17:06:23.871Z,73.86
2022-10-09T17:11:29.922Z,74.39
2022-10-09T17:16:36.002Z,74.69
2022-10-09T17:21:38.903Z,74.93
2022-10-09T17:26:42.050Z,75.14
2022-10-09T17:31:44.794Z,75.26
2022-10-09T17:36:47.843Z,75.75
2022-10-09T17:41:50.767Z,76.13
2022-10-09T17:46:54.160Z,76.35
2022-10-09T17:51:56.976Z,76.68
2022-10-09T17:57:02.274Z,76.74
2022-10-09T18:02:05.836Z,76.95
2022-10-09T18:07:10.852Z,77.00
2022-10-09T18:12:13.567Z,77.43
2022-10-09T18:17:16.301Z,77.88
2022-10-09T18:22:18.973Z,78.21
2022-10-09T18:27:24.010Z,78.35
2022-10-09T18:32:26.839Z,78.60
2022-10-09T18:37:29.633Z,79.02
2022-10-09T18:42:32.455Z,79.34
2022-10-09T18:47:36.382Z,79.38
2022-10-09T18:52:41.990Z,79.69
2022-10-09T18:57:47.956Z,79.69
2022-10-09T19:02:50.734Z,79.87
2022-10-09T19:07:53.423Z,80.16
2022-10-09T19:12:56.230Z,80.52
2022-10-09T19:17:58.971Z,80.73
2022-10-09T19:23:01.762Z,81.06
2022-10-09T19:28:04.448Z,81.34
2022-10-09T19:33:07.415Z,81.39
2022-10-09T19:38:10.076Z,81.65
2022-10-09T19:43:14.022Z,82.10
2022-10-09T19:48:18.308Z,82.39
2022-10-09T19:53:21.043Z,82.89
2022-10-09T19:58:23.818Z,83.20
2022-10-09T20:03:26.531Z,83.27
2022-10-09T20:08:29.615Z,83.92
2022-10-09T20:13:45.038Z,84.11
2022-10-09T20:18:47.840Z,84.13
2022-10-09T20:23:51.703Z,84.69
2022-10-09T20:28:54.696Z,85.18
2022-10-09T20:33:58.853Z,85.21
2022-10-09T20:39:05.273Z,84.94
2022-10-09T20:44:08.470Z,85.26
2022-10-09T20:49:13.021Z,85.62
2022-10-09T20:54:18.068Z,86.04
2022-10-09T20:59:20.893Z,86.28
2022-10-09T21:04:23.676Z,86.29
2022-10-09T21:09:29.666Z,86.52
2022-10-09T21:14:33.791Z,86.57
2022-10-09T21:19:36.470Z,86.55
2022-10-09T21:24:39.183Z,86.72
2022-10-09T21:29:41.976Z,86.61
2022-10-09T21:34:45.345Z,86.72
2022-10-09T21:39:48.098Z,86.68
2022-10-09T21:44:50.773Z,86.59
2022-10-09T21:49:53.605Z,86.62
2022-10-09T21:54:56.353Z,86.48
2022-10-09T21:59:59.018Z,86.59
2022-10-09T22:05:01.770Z,86.74
2022-10-09T22:10:06.625Z,86.97
2022-10-09T22:15:09.746Z,86.69
2022-10-09T22:20:13.310Z,87.17
2022-10-09T22:25:16.233Z,87.39
2022-10-09T22:30:18.912Z,87.31
2022-10-09T22:35:22.072Z,87.40
2022-10-09T22:40:24.826Z,87.51
2022-10-09T22:45:27.457Z,87.83
2022-10-09T22:50:30.363Z,87.36
2022-10-09T22:55:33.033Z,87.55
2022-10-09T23:00:37.082Z,87.42
2022-10-09T23:05:39.997Z,87.10
2022-10-09T23:10:42.767Z,87.18
2022-10-09T23:15:45.517Z,87.77
2022-10-09T23:20:48.502Z,87.80
2022-10-09T23:25:51.193Z,87.32
2022-10-09T23:30:53.871Z,87.54
2022-10-09T23:35:56.677Z,87.59
2022-10-09T23:41:01.952Z,87.78
2022-10-09T23:46:06.085Z,87.32
2022-10-09T23:51:09.741Z,87.28
2022-10-09T23:56:18.530Z,87.04
